sensor_id;sensor_type;location;lat;lon;timestamp;P1;durP1;ratioP1;P2;durP2;ratioP2
73487;SDS011;61721;42.206;25.320;2023-04-25T00:02:19;4.85;;;1.40;;
73487;SDS011;61721;42.206;25.320;2023-04-25T00:04:54;3.58;;;1.10;;
73487;SDS011;61721;42.206;25.320;2023-04-25T00:07:31;4.32;;;1.10;;
73487;SDS011;61721;42.206;25.320;2023-04-25T00:10:08;2.28;;;1.20;;
73487;SDS011;61721;42.206;25.320;2023-04-25T00:12:46;3.22;;;1.35;;
73487;SDS011;61721;42.206;25.320;2023-04-25T00:15:21;2.88;;;1.38;;
73487;SDS011;61721;42.206;25.320;2023-04-25T00:17:57;3.03;;;1.48;;
73487;SDS011;61721;42.206;25.320;2023-04-25T00:20:40;2.75;;;1.23;;
73487;SDS011;61721;42.206;25.320;2023-04-25T00:23:18;3.40;;;1.42;;
73487;SDS011;61721;42.206;25.320;2023-04-25T00:25:53;2.97;;;1.33;;
73487;SDS011;61721;42.206;25.320;2023-04-25T00:28:32;3.00;;;1.40;;
73487;SDS011;61721;42.206;25.320;2023-04-25T00:31:07;3.08;;;1.17;;
73487;SDS011;61721;42.206;25.320;2023-04-25T00:33:42;3.40;;;1.23;;
73487;SDS011;61721;42.206;25.320;2023-04-25T00:36:17;2.80;;;1.20;;
73487;SDS011;61721;42.206;25.320;2023-04-25T00:38:53;2.90;;;1.50;;
73487;SDS011;61721;42.206;25.320;2023-04-25T00:41:28;3.85;;;1.77;;
73487;SDS011;61721;42.206;25.320;2023-04-25T00:44:08;4.50;;;1.52;;
73487;SDS011;61721;42.206;25.320;2023-04-25T00:46:43;4.18;;;1.50;;
73487;SDS011;61721;42.206;25.320;2023-04-25T00:49:19;3.45;;;1.40;;
73487;SDS011;61721;42.206;25.320;2023-04-25T00:51:54;3.25;;;1.52;;
73487;SDS011;61721;42.206;25.320;2023-04-25T00:54:30;3.38;;;1.45;;
73487;SDS011;61721;42.206;25.320;2023-04-25T00:57:05;3.83;;;1.63;;
73487;SDS011;61721;42.206;25.320;2023-04-25T00:59:45;3.20;;;1.52;;
73487;SDS011;61721;42.206;25.320;2023-04-25T01:02:20;3.20;;;1.48;;
73487;SDS011;61721;42.206;25.320;2023-04-25T01:04:57;3.20;;;1.65;;
73487;SDS011;61721;42.206;25.320;2023-04-25T01:07:32;3.10;;;1.60;;
73487;SDS011;61721;42.206;25.320;2023-04-25T01:10:08;4.60;;;1.80;;
73487;SDS011;61721;42.206;25.320;2023-04-25T01:12:44;4.85;;;1.52;;
73487;SDS011;61721;42.206;25.320;2023-04-25T01:15:22;3.45;;;1.90;;
73487;SDS011;61721;42.206;25.320;2023-04-25T01:18:05;3.45;;;1.70;;
73487;SDS011;61721;42.206;25.320;2023-04-25T01:20:41;4.47;;;2.25;;
73487;SDS011;61721;42.206;25.320;2023-04-25T01:23:20;5.65;;;2.00;;
73487;SDS011;61721;42.206;25.320;2023-04-25T01:25:57;4.55;;;2.00;;
73487;SDS011;61721;42.206;25.320;2023-04-25T01:28:33;3.70;;;2.03;;
73487;SDS011;61721;42.206;25.320;2023-04-25T01:31:08;4.47;;;2.20;;
73487;SDS011;61721;42.206;25.320;2023-04-25T01:33:43;4.63;;;2.80;;
73487;SDS011;61721;42.206;25.320;2023-04-25T01:36:19;6.05;;;2.35;;
73487;SDS011;61721;42.206;25.320;2023-04-25T01:38:58;8.65;;;2.88;;
73487;SDS011;61721;42.206;25.320;2023-04-25T01:41:33;6.88;;;2.70;;
73487;SDS011;61721;42.206;25.320;2023-04-25T01:44:09;4.82;;;2.30;;
73487;SDS011;61721;42.206;25.320;2023-04-25T01:46:44;4.78;;;2.70;;
73487;SDS011;61721;42.206;25.320;2023-04-25T01:49:20;5.45;;;2.60;;
73487;SDS011;61721;42.206;25.320;2023-04-25T01:51:55;4.45;;;2.10;;
73487;SDS011;61721;42.206;25.320;2023-04-25T01:54:33;5.07;;;2.40;;
73487;SDS011;61721;42.206;25.320;2023-04-25T01:57:08;3.70;;;2.20;;
73487;SDS011;61721;42.206;25.320;2023-04-25T01:59:43;5.90;;;2.13;;
73487;SDS011;61721;42.206;25.320;2023-04-25T02:02:18;4.47;;;2.33;;
73487;SDS011;61721;42.206;25.320;2023-04-25T02:04:53;5.03;;;2.53;;
73487;SDS011;61721;42.206;25.320;2023-04-25T02:07:28;4.72;;;2.50;;
73487;SDS011;61721;42.206;25.320;2023-04-25T02:10:06;4.68;;;2.35;;
73487;SDS011;61721;42.206;25.320;2023-04-25T02:12:41;5.75;;;2.70;;
73487;SDS011;61721;42.206;25.320;2023-04-25T02:15:18;5.20;;;2.45;;
73487;SDS011;61721;42.206;25.320;2023-04-25T02:17:53;4.70;;;2.40;;
73487;SDS011;61721;42.206;25.320;2023-04-25T02:20:29;5.07;;;2.50;;
73487;SDS011;61721;42.206;25.320;2023-04-25T02:23:05;4.97;;;2.75;;
73487;SDS011;61721;42.206;25.320;2023-04-25T02:25:43;3.63;;;2.10;;
73487;SDS011;61721;42.206;25.320;2023-04-25T02:28:18;4.13;;;2.10;;
73487;SDS011;61721;42.206;25.320;2023-04-25T02:30:53;3.92;;;1.83;;
73487;SDS011;61721;42.206;25.320;2023-04-25T02:33:29;5.00;;;1.80;;
73487;SDS011;61721;42.206;25.320;2023-04-25T02:36:04;4.68;;;2.00;;
73487;SDS011;61721;42.206;25.320;2023-04-25T02:38:40;4.38;;;2.00;;
73487;SDS011;61721;42.206;25.320;2023-04-25T02:41:18;5.43;;;2.00;;
73487;SDS011;61721;42.206;25.320;2023-04-25T02:43:53;4.57;;;2.30;;
73487;SDS011;61721;42.206;25.320;2023-04-25T02:46:29;4.15;;;2.35;;
73487;SDS011;61721;42.206;25.320;2023-04-25T02:49:05;4.20;;;2.28;;
73487;SDS011;61721;42.206;25.320;2023-04-25T02:51:41;6.25;;;2.72;;
73487;SDS011;61721;42.206;25.320;2023-04-25T02:54:16;4.05;;;2.53;;
73487;SDS011;61721;42.206;25.320;2023-04-25T02:56:54;4.47;;;2.45;;
73487;SDS011;61721;42.206;25.320;2023-04-25T02:59:29;5.30;;;2.63;;
73487;SDS011;61721;42.206;25.320;2023-04-25T03:02:04;5.30;;;2.40;;
73487;SDS011;61721;42.206;25.320;2023-04-25T03:04:39;4.20;;;2.70;;
73487;SDS011;61721;42.206;25.320;2023-04-25T03:07:14;6.72;;;3.10;;
73487;SDS011;61721;42.206;25.320;2023-04-25T03:09:49;5.13;;;2.50;;
73487;SDS011;61721;42.206;25.320;2023-04-25T03:12:27;4.32;;;2.78;;
73487;SDS011;61721;42.206;25.320;2023-04-25T03:15:02;3.88;;;2.33;;
73487;SDS011;61721;42.206;25.320;2023-04-25T03:17:38;4.72;;;2.63;;
73487;SDS011;61721;42.206;25.320;2023-04-25T03:20:14;4.25;;;2.55;;
73487;SDS011;61721;42.206;25.320;2023-04-25T03:22:49;4.75;;;3.10;;
73487;SDS011;61721;42.206;25.320;2023-04-25T03:25:24;7.22;;;3.30;;
73487;SDS011;61721;42.206;25.320;2023-04-25T03:28:03;5.07;;;3.10;;
73487;SDS011;61721;42.206;25.320;2023-04-25T03:30:38;7.22;;;3.13;;
73487;SDS011;61721;42.206;25.320;2023-04-25T03:33:13;5.90;;;3.10;;
73487;SDS011;61721;42.206;25.320;2023-04-25T03:35:48;5.57;;;3.33;;
73487;SDS011;61721;42.206;25.320;2023-04-25T03:38:24;7.40;;;2.90;;
73487;SDS011;61721;42.206;25.320;2023-04-25T03:41:00;4.85;;;3.00;;
73487;SDS011;61721;42.206;25.320;2023-04-25T03:43:38;6.07;;;3.28;;
73487;SDS011;61721;42.206;25.320;2023-04-25T03:46:13;4.88;;;3.00;;
73487;SDS011;61721;42.206;25.320;2023-04-25T03:48:48;15.00;;;3.85;;
73487;SDS011;61721;42.206;25.320;2023-04-25T03:51:23;5.47;;;3.40;;
73487;SDS011;61721;42.206;25.320;2023-04-25T03:53:58;7.78;;;4.00;;
73487;SDS011;61721;42.206;25.320;2023-04-25T03:56:33;6.97;;;4.13;;
73487;SDS011;61721;42.206;25.320;2023-04-25T03:59:11;6.18;;;4.32;;
73487;SDS011;61721;42.206;25.320;2023-04-25T04:01:46;9.27;;;4.85;;
73487;SDS011;61721;42.206;25.320;2023-04-25T04:04:22;8.05;;;4.88;;
73487;SDS011;61721;42.206;25.320;2023-04-25T04:06:57;9.55;;;5.47;;
73487;SDS011;61721;42.206;25.320;2023-04-25T04:09:32;7.82;;;4.60;;
73487;SDS011;61721;42.206;25.320;2023-04-25T04:12:07;9.20;;;4.85;;
73487;SDS011;61721;42.206;25.320;2023-04-25T04:14:45;7.65;;;3.90;;
73487;SDS011;61721;42.206;25.320;2023-04-25T04:17:20;7.38;;;3.47;;
73487;SDS011;61721;42.206;25.320;2023-04-25T04:19:55;6.30;;;3.22;;
73487;SDS011;61721;42.206;25.320;2023-04-25T04:22:30;5.95;;;4.00;;
73487;SDS011;61721;42.206;25.320;2023-04-25T04:25:06;7.18;;;4.38;;
73487;SDS011;61721;42.206;25.320;2023-04-25T04:27:43;9.70;;;6.25;;
73487;SDS011;61721;42.206;25.320;2023-04-25T04:30:21;6.50;;;3.42;;
73487;SDS011;61721;42.206;25.320;2023-04-25T04:32:58;6.18;;;3.53;;
73487;SDS011;61721;42.206;25.320;2023-04-25T04:35:34;6.82;;;3.13;;
73487;SDS011;61721;42.206;25.320;2023-04-25T04:38:17;5.75;;;3.45;;
73487;SDS011;61721;42.206;25.320;2023-04-25T04:40:53;8.50;;;3.55;;
73487;SDS011;61721;42.206;25.320;2023-04-25T04:43:28;5.68;;;3.53;;
73487;SDS011;61721;42.206;25.320;2023-04-25T04:46:07;6.28;;;3.78;;
73487;SDS011;61721;42.206;25.320;2023-04-25T04:48:44;8.98;;;4.80;;
73487;SDS011;61721;42.206;25.320;2023-04-25T04:51:19;7.50;;;4.22;;
73487;SDS011;61721;42.206;25.320;2023-04-25T04:53:55;7.15;;;4.30;;
73487;SDS011;61721;42.206;25.320;2023-04-25T04:56:33;7.35;;;4.03;;
73487;SDS011;61721;42.206;25.320;2023-04-25T04:59:08;10.65;;;5.38;;
73487;SDS011;61721;42.206;25.320;2023-04-25T05:01:47;10.25;;;4.80;;
73487;SDS011;61721;42.206;25.320;2023-04-25T05:04:22;7.70;;;4.55;;
73487;SDS011;61721;42.206;25.320;2023-04-25T05:06:58;15.23;;;4.55;;
73487;SDS011;61721;42.206;25.320;2023-04-25T05:09:33;13.43;;;5.15;;
73487;SDS011;61721;42.206;25.320;2023-04-25T05:12:08;9.55;;;5.05;;
73487;SDS011;61721;42.206;25.320;2023-04-25T05:14:43;6.10;;;3.72;;
73487;SDS011;61721;42.206;25.320;2023-04-25T05:17:21;7.45;;;3.88;;
73487;SDS011;61721;42.206;25.320;2023-04-25T05:19:56;5.90;;;3.88;;
73487;SDS011;61721;42.206;25.320;2023-04-25T05:22:31;6.47;;;3.95;;
73487;SDS011;61721;42.206;25.320;2023-04-25T05:25:08;11.38;;;3.60;;
73487;SDS011;61721;42.206;25.320;2023-04-25T05:27:43;10.05;;;4.32;;
73487;SDS011;61721;42.206;25.320;2023-04-25T05:30:18;8.85;;;5.57;;
73487;SDS011;61721;42.206;25.320;2023-04-25T05:32:56;8.63;;;5.28;;
73487;SDS011;61721;42.206;25.320;2023-04-25T05:35:32;8.48;;;5.15;;
73487;SDS011;61721;42.206;25.320;2023-04-25T05:38:07;7.40;;;4.03;;
73487;SDS011;61721;42.206;25.320;2023-04-25T05:40:42;7.10;;;4.30;;
73487;SDS011;61721;42.206;25.320;2023-04-25T05:43:17;6.97;;;4.28;;
73487;SDS011;61721;42.206;25.320;2023-04-25T05:45:53;6.07;;;4.18;;
73487;SDS011;61721;42.206;25.320;2023-04-25T05:48:31;7.20;;;3.90;;
73487;SDS011;61721;42.206;25.320;2023-04-25T05:51:06;7.10;;;4.18;;
73487;SDS011;61721;42.206;25.320;2023-04-25T05:53:41;6.93;;;3.63;;
73487;SDS011;61721;42.206;25.320;2023-04-25T05:56:16;8.48;;;4.28;;
73487;SDS011;61721;42.206;25.320;2023-04-25T05:58:51;7.30;;;4.53;;
73487;SDS011;61721;42.206;25.320;2023-04-25T06:01:26;8.57;;;3.92;;
73487;SDS011;61721;42.206;25.320;2023-04-25T06:04:04;9.27;;;4.05;;
73487;SDS011;61721;42.206;25.320;2023-04-25T06:06:39;7.30;;;4.55;;
73487;SDS011;61721;42.206;25.320;2023-04-25T06:09:14;6.53;;;4.35;;
73487;SDS011;61721;42.206;25.320;2023-04-25T06:11:49;8.65;;;4.22;;
73487;SDS011;61721;42.206;25.320;2023-04-25T06:14:25;9.55;;;4.65;;
73487;SDS011;61721;42.206;25.320;2023-04-25T06:17:00;6.43;;;4.18;;
73487;SDS011;61721;42.206;25.320;2023-04-25T06:19:48;9.10;;;4.35;;
73487;SDS011;61721;42.206;25.320;2023-04-25T06:22:23;6.43;;;3.90;;
73487;SDS011;61721;42.206;25.320;2023-04-25T06:24:58;5.68;;;3.42;;
73487;SDS011;61721;42.206;25.320;2023-04-25T06:27:35;7.35;;;4.15;;
73487;SDS011;61721;42.206;25.320;2023-04-25T06:30:10;6.30;;;4.05;;
73487;SDS011;61721;42.206;25.320;2023-04-25T06:32:46;9.40;;;5.57;;
73487;SDS011;61721;42.206;25.320;2023-04-25T06:35:25;22.08;;;17.58;;
73487;SDS011;61721;42.206;25.320;2023-04-25T06:38:00;14.05;;;11.85;;
73487;SDS011;61721;42.206;25.320;2023-04-25T06:40:35;7.00;;;4.15;;
73487;SDS011;61721;42.206;25.320;2023-04-25T06:43:11;9.50;;;4.68;;
73487;SDS011;61721;42.206;25.320;2023-04-25T06:45:46;10.23;;;5.78;;
73487;SDS011;61721;42.206;25.320;2023-04-25T06:48:21;10.32;;;6.72;;
73487;SDS011;61721;42.206;25.320;2023-04-25T06:51:00;12.05;;;7.55;;
73487;SDS011;61721;42.206;25.320;2023-04-25T06:53:35;7.32;;;3.85;;
73487;SDS011;61721;42.206;25.320;2023-04-25T06:56:10;7.82;;;3.78;;
73487;SDS011;61721;42.206;25.320;2023-04-25T06:58:46;5.95;;;3.58;;
73487;SDS011;61721;42.206;25.320;2023-04-25T07:01:21;6.80;;;3.83;;
73487;SDS011;61721;42.206;25.320;2023-04-25T07:03:57;7.30;;;4.88;;
73487;SDS011;61721;42.206;25.320;2023-04-25T07:06:35;9.20;;;5.40;;
73487;SDS011;61721;42.206;25.320;2023-04-25T07:09:14;8.23;;;4.97;;
73487;SDS011;61721;42.206;25.320;2023-04-25T07:11:49;6.45;;;4.20;;
73487;SDS011;61721;42.206;25.320;2023-04-25T07:14:24;8.45;;;5.30;;
73487;SDS011;61721;42.206;25.320;2023-04-25T07:16:59;6.78;;;4.45;;
73487;SDS011;61721;42.206;25.320;2023-04-25T07:19:34;5.18;;;3.17;;
73487;SDS011;61721;42.206;25.320;2023-04-25T07:22:20;5.63;;;3.45;;
73487;SDS011;61721;42.206;25.320;2023-04-25T07:24:55;6.60;;;2.70;;
73487;SDS011;61721;42.206;25.320;2023-04-25T07:27:30;4.80;;;2.20;;
73487;SDS011;61721;42.206;25.320;2023-04-25T07:30:07;4.53;;;2.50;;
73487;SDS011;61721;42.206;25.320;2023-04-25T07:32:42;4.05;;;2.40;;
73487;SDS011;61721;42.206;25.320;2023-04-25T07:35:17;4.13;;;2.25;;
73487;SDS011;61721;42.206;25.320;2023-04-25T07:37:55;4.22;;;2.17;;
73487;SDS011;61721;42.206;25.320;2023-04-25T07:40:30;5.15;;;2.10;;
73487;SDS011;61721;42.206;25.320;2023-04-25T07:43:06;4.32;;;1.88;;
73487;SDS011;61721;42.206;25.320;2023-04-25T07:45:43;3.72;;;1.85;;
73487;SDS011;61721;42.206;25.320;2023-04-25T07:50:54;3.58;;;1.90;;
73487;SDS011;61721;42.206;25.320;2023-04-25T07:53:33;5.03;;;2.53;;
73487;SDS011;61721;42.206;25.320;2023-04-25T07:56:09;6.82;;;2.67;;
73487;SDS011;61721;42.206;25.320;2023-04-25T07:58:44;4.50;;;2.80;;
73487;SDS011;61721;42.206;25.320;2023-04-25T08:01:19;4.35;;;2.13;;
73487;SDS011;61721;42.206;25.320;2023-04-25T08:03:54;3.38;;;1.88;;
73487;SDS011;61721;42.206;25.320;2023-04-25T08:06:29;3.67;;;1.92;;
73487;SDS011;61721;42.206;25.320;2023-04-25T08:09:07;3.42;;;1.80;;
73487;SDS011;61721;42.206;25.320;2023-04-25T08:11:42;3.75;;;1.65;;
73487;SDS011;61721;42.206;25.320;2023-04-25T08:14:18;3.80;;;1.70;;
73487;SDS011;61721;42.206;25.320;2023-04-25T08:16:53;3.60;;;1.73;;
73487;SDS011;61721;42.206;25.320;2023-04-25T08:19:36;3.42;;;1.45;;
73487;SDS011;61721;42.206;25.320;2023-04-25T08:22:11;3.35;;;1.70;;
73487;SDS011;61721;42.206;25.320;2023-04-25T08:24:50;3.63;;;1.58;;
73487;SDS011;61721;42.206;25.320;2023-04-25T08:27:25;3.22;;;1.80;;
73487;SDS011;61721;42.206;25.320;2023-04-25T08:30:00;3.80;;;1.85;;
73487;SDS011;61721;42.206;25.320;2023-04-25T08:32:35;5.13;;;1.73;;
73487;SDS011;61721;42.206;25.320;2023-04-25T08:35:11;4.22;;;2.10;;
73487;SDS011;61721;42.206;25.320;2023-04-25T08:37:48;4.43;;;1.88;;
73487;SDS011;61721;42.206;25.320;2023-04-25T08:40:27;3.50;;;1.60;;
73487;SDS011;61721;42.206;25.320;2023-04-25T08:43:03;3.70;;;1.85;;
73487;SDS011;61721;42.206;25.320;2023-04-25T08:45:42;3.63;;;1.92;;
73487;SDS011;61721;42.206;25.320;2023-04-25T08:48:18;3.40;;;1.80;;
73487;SDS011;61721;42.206;25.320;2023-04-25T08:50:54;3.30;;;1.90;;
73487;SDS011;61721;42.206;25.320;2023-04-25T08:53:30;3.30;;;1.80;;
73487;SDS011;61721;42.206;25.320;2023-04-25T08:58:43;6.43;;;1.90;;
73487;SDS011;61721;42.206;25.320;2023-04-25T09:01:18;3.22;;;1.50;;
73487;SDS011;61721;42.206;25.320;2023-04-25T09:03:53;3.80;;;1.88;;
73487;SDS011;61721;42.206;25.320;2023-04-25T09:06:28;5.30;;;1.63;;
73487;SDS011;61721;42.206;25.320;2023-04-25T09:09:04;3.65;;;1.50;;
73487;SDS011;61721;42.206;25.320;2023-04-25T09:14:17;3.50;;;1.50;;
73487;SDS011;61721;42.206;25.320;2023-04-25T09:16:57;4.35;;;1.52;;
73487;SDS011;61721;42.206;25.320;2023-04-25T09:19:33;3.58;;;1.33;;
73487;SDS011;61721;42.206;25.320;2023-04-25T09:22:17;4.10;;;1.88;;
73487;SDS011;61721;42.206;25.320;2023-04-25T09:24:54;5.13;;;1.70;;
73487;SDS011;61721;42.206;25.320;2023-04-25T09:27:29;3.58;;;1.70;;
73487;SDS011;61721;42.206;25.320;2023-04-25T09:30:08;3.15;;;1.88;;
73487;SDS011;61721;42.206;25.320;2023-04-25T09:32:44;3.17;;;1.70;;
73487;SDS011;61721;42.206;25.320;2023-04-25T09:35:23;2.90;;;1.30;;
73487;SDS011;61721;42.206;25.320;2023-04-25T09:38:00;3.10;;;1.67;;
73487;SDS011;61721;42.206;25.320;2023-04-25T09:40:39;3.42;;;1.80;;
73487;SDS011;61721;42.206;25.320;2023-04-25T09:43:18;3.30;;;1.73;;
73487;SDS011;61721;42.206;25.320;2023-04-25T09:45:57;8.68;;;2.30;;
73487;SDS011;61721;42.206;25.320;2023-04-25T09:48:32;3.63;;;2.08;;
73487;SDS011;61721;42.206;25.320;2023-04-25T09:51:09;3.45;;;2.00;;
73487;SDS011;61721;42.206;25.320;2023-04-25T09:53:46;4.47;;;2.17;;
73487;SDS011;61721;42.206;25.320;2023-04-25T09:56:22;5.45;;;2.50;;
73487;SDS011;61721;42.206;25.320;2023-04-25T10:01:37;4.00;;;2.42;;
73487;SDS011;61721;42.206;25.320;2023-04-25T10:04:16;4.25;;;2.35;;
73487;SDS011;61721;42.206;25.320;2023-04-25T10:06:53;5.93;;;3.15;;
73487;SDS011;61721;42.206;25.320;2023-04-25T10:09:31;4.40;;;2.80;;
73487;SDS011;61721;42.206;25.320;2023-04-25T10:12:06;4.13;;;2.38;;
73487;SDS011;61721;42.206;25.320;2023-04-25T10:17:20;5.10;;;2.45;;
73487;SDS011;61721;42.206;25.320;2023-04-25T10:20:03;3.85;;;2.17;;
73487;SDS011;61721;42.206;25.320;2023-04-25T10:22:42;5.03;;;2.17;;
73487;SDS011;61721;42.206;25.320;2023-04-25T10:25:20;4.32;;;2.53;;
73487;SDS011;61721;42.206;25.320;2023-04-25T10:27:55;3.42;;;2.13;;
73487;SDS011;61721;42.206;25.320;2023-04-25T10:30:31;3.88;;;2.03;;
73487;SDS011;61721;42.206;25.320;2023-04-25T10:33:18;3.78;;;2.17;;
73487;SDS011;61721;42.206;25.320;2023-04-25T10:36:10;5.00;;;2.20;;
73487;SDS011;61721;42.206;25.320;2023-04-25T10:38:47;4.18;;;2.00;;
73487;SDS011;61721;42.206;25.320;2023-04-25T10:43:59;3.72;;;2.22;;
73487;SDS011;61721;42.206;25.320;2023-04-25T10:46:36;3.55;;;2.00;;
73487;SDS011;61721;42.206;25.320;2023-04-25T10:49:27;3.58;;;1.98;;
73487;SDS011;61721;42.206;25.320;2023-04-25T10:52:18;4.07;;;2.20;;
73487;SDS011;61721;42.206;25.320;2023-04-25T10:54:54;4.07;;;1.95;;
73487;SDS011;61721;42.206;25.320;2023-04-25T10:57:30;4.03;;;2.40;;
73487;SDS011;61721;42.206;25.320;2023-04-25T11:00:08;4.32;;;2.40;;
73487;SDS011;61721;42.206;25.320;2023-04-25T11:02:45;4.28;;;2.30;;
73487;SDS011;61721;42.206;25.320;2023-04-25T11:05:29;3.80;;;2.00;;
73487;SDS011;61721;42.206;25.320;2023-04-25T11:08:09;3.53;;;1.80;;
73487;SDS011;61721;42.206;25.320;2023-04-25T11:10:45;4.38;;;1.98;;
73487;SDS011;61721;42.206;25.320;2023-04-25T11:13:21;4.03;;;2.50;;
73487;SDS011;61721;42.206;25.320;2023-04-25T11:15:56;6.60;;;2.47;;
73487;SDS011;61721;42.206;25.320;2023-04-25T11:18:31;3.95;;;1.90;;
73487;SDS011;61721;42.206;25.320;2023-04-25T11:21:10;6.72;;;2.13;;
73487;SDS011;61721;42.206;25.320;2023-04-25T11:23:52;5.55;;;1.88;;
73487;SDS011;61721;42.206;25.320;2023-04-25T11:29:03;7.03;;;2.63;;
73487;SDS011;61721;42.206;25.320;2023-04-25T11:31:39;5.35;;;2.80;;
73487;SDS011;61721;42.206;25.320;2023-04-25T11:34:18;4.40;;;2.72;;
73487;SDS011;61721;42.206;25.320;2023-04-25T11:36:56;3.92;;;2.40;;
73487;SDS011;61721;42.206;25.320;2023-04-25T11:39:33;4.90;;;2.33;;
73487;SDS011;61721;42.206;25.320;2023-04-25T11:42:08;3.30;;;1.90;;
73487;SDS011;61721;42.206;25.320;2023-04-25T11:47:18;5.35;;;2.30;;
73487;SDS011;61721;42.206;25.320;2023-04-25T11:49:53;7.32;;;2.08;;
73487;SDS011;61721;42.206;25.320;2023-04-25T11:55:24;4.43;;;2.33;;
73487;SDS011;61721;42.206;25.320;2023-04-25T11:58:00;3.88;;;2.40;;
73487;SDS011;61721;42.206;25.320;2023-04-25T12:00:36;15.38;;;2.75;;
73487;SDS011;61721;42.206;25.320;2023-04-25T12:03:11;4.15;;;2.63;;
73487;SDS011;61721;42.206;25.320;2023-04-25T12:05:47;7.93;;;3.10;;
73487;SDS011;61721;42.206;25.320;2023-04-25T12:08:21;4.55;;;2.10;;
73487;SDS011;61721;42.206;25.320;2023-04-25T12:13:36;4.00;;;2.05;;
73487;SDS011;61721;42.206;25.320;2023-04-25T12:16:12;3.33;;;1.75;;
73487;SDS011;61721;42.206;25.320;2023-04-25T12:18:47;3.53;;;1.90;;
73487;SDS011;61721;42.206;25.320;2023-04-25T12:21:30;4.43;;;2.08;;
73487;SDS011;61721;42.206;25.320;2023-04-25T12:24:10;3.15;;;1.73;;
73487;SDS011;61721;42.206;25.320;2023-04-25T12:26:49;3.20;;;1.92;;
73487;SDS011;61721;42.206;25.320;2023-04-25T12:29:32;3.00;;;1.70;;
73487;SDS011;61721;42.206;25.320;2023-04-25T12:32:08;6.22;;;1.80;;
73487;SDS011;61721;42.206;25.320;2023-04-25T12:34:43;5.05;;;1.63;;
73487;SDS011;61721;42.206;25.320;2023-04-25T12:39:54;3.60;;;1.90;;
73487;SDS011;61721;42.206;25.320;2023-04-25T12:42:30;2.90;;;1.50;;
73487;SDS011;61721;42.206;25.320;2023-04-25T12:45:08;3.85;;;1.40;;
73487;SDS011;61721;42.206;25.320;2023-04-25T12:47:44;3.13;;;1.67;;
73487;SDS011;61721;42.206;25.320;2023-04-25T12:50:18;3.38;;;1.67;;
73487;SDS011;61721;42.206;25.320;2023-04-25T12:52:54;3.33;;;1.40;;
73487;SDS011;61721;42.206;25.320;2023-04-25T12:55:29;3.42;;;1.65;;
73487;SDS011;61721;42.206;25.320;2023-04-25T12:58:05;3.40;;;1.55;;
73487;SDS011;61721;42.206;25.320;2023-04-25T13:00:43;2.92;;;1.35;;
73487;SDS011;61721;42.206;25.320;2023-04-25T13:03:19;3.50;;;1.63;;
73487;SDS011;61721;42.206;25.320;2023-04-25T13:08:30;3.03;;;1.38;;
73487;SDS011;61721;42.206;25.320;2023-04-25T13:13:41;2.72;;;1.38;;
73487;SDS011;61721;42.206;25.320;2023-04-25T13:16:19;4.45;;;1.23;;
73487;SDS011;61721;42.206;25.320;2023-04-25T13:18:54;4.40;;;1.33;;
73487;SDS011;61721;42.206;25.320;2023-04-25T13:24:08;3.00;;;1.20;;
73487;SDS011;61721;42.206;25.320;2023-04-25T13:29:18;4.22;;;1.33;;
73487;SDS011;61721;42.206;25.320;2023-04-25T13:31:56;3.38;;;1.42;;
73487;SDS011;61721;42.206;25.320;2023-04-25T13:34:32;10.35;;;1.45;;
73487;SDS011;61721;42.206;25.320;2023-04-25T13:37:06;6.78;;;1.55;;
73487;SDS011;61721;42.206;25.320;2023-04-25T13:39:42;2.53;;;1.20;;
73487;SDS011;61721;42.206;25.320;2023-04-25T13:42:17;4.07;;;1.33;;
73487;SDS011;61721;42.206;25.320;2023-04-25T13:44:53;2.70;;;1.17;;
73487;SDS011;61721;42.206;25.320;2023-04-25T13:47:30;3.05;;;1.30;;
73487;SDS011;61721;42.206;25.320;2023-04-25T13:50:06;5.72;;;1.85;;
73487;SDS011;61721;42.206;25.320;2023-04-25T13:55:17;2.80;;;1.30;;
73487;SDS011;61721;42.206;25.320;2023-04-25T14:00:28;3.03;;;1.40;;
73487;SDS011;61721;42.206;25.320;2023-04-25T14:03:06;3.30;;;1.67;;
73487;SDS011;61721;42.206;25.320;2023-04-25T14:05:41;7.25;;;1.30;;
73487;SDS011;61721;42.206;25.320;2023-04-25T14:08:16;2.55;;;1.10;;
73487;SDS011;61721;42.206;25.320;2023-04-25T14:10:51;4.00;;;1.10;;
73487;SDS011;61721;42.206;25.320;2023-04-25T14:13:26;3.65;;;1.10;;
73487;SDS011;61721;42.206;25.320;2023-04-25T14:16:03;3.70;;;1.30;;
73487;SDS011;61721;42.206;25.320;2023-04-25T14:18:41;5.43;;;1.95;;
73487;SDS011;61721;42.206;25.320;2023-04-25T14:21:17;5.55;;;1.92;;
73487;SDS011;61721;42.206;25.320;2023-04-25T14:23:58;4.22;;;1.65;;
73487;SDS011;61721;42.206;25.320;2023-04-25T14:26:34;4.75;;;2.08;;
73487;SDS011;61721;42.206;25.320;2023-04-25T14:29:09;5.03;;;2.00;;
73487;SDS011;61721;42.206;25.320;2023-04-25T14:31:47;3.22;;;1.80;;
73487;SDS011;61721;42.206;25.320;2023-04-25T14:34:25;3.35;;;1.63;;
73487;SDS011;61721;42.206;25.320;2023-04-25T14:37:01;3.40;;;1.70;;
73487;SDS011;61721;42.206;25.320;2023-04-25T14:39:35;4.18;;;1.80;;
73487;SDS011;61721;42.206;25.320;2023-04-25T14:42:12;3.30;;;1.35;;
73487;SDS011;61721;42.206;25.320;2023-04-25T14:44:47;3.55;;;1.10;;
73487;SDS011;61721;42.206;25.320;2023-04-25T14:47:23;2.55;;;1.15;;
73487;SDS011;61721;42.206;25.320;2023-04-25T14:50:00;8.35;;;1.30;;
73487;SDS011;61721;42.206;25.320;2023-04-25T14:52:37;2.78;;;0.98;;
73487;SDS011;61721;42.206;25.320;2023-04-25T14:55:11;5.45;;;1.20;;
73487;SDS011;61721;42.206;25.320;2023-04-25T14:57:47;3.22;;;0.90;;
73487;SDS011;61721;42.206;25.320;2023-04-25T15:00:22;3.25;;;1.30;;
73487;SDS011;61721;42.206;25.320;2023-04-25T15:02:58;7.90;;;1.65;;
73487;SDS011;61721;42.206;25.320;2023-04-25T15:05:36;2.80;;;1.13;;
73487;SDS011;61721;42.206;25.320;2023-04-25T15:08:12;3.35;;;1.10;;
73487;SDS011;61721;42.206;25.320;2023-04-25T15:10:46;3.78;;;1.38;;
73487;SDS011;61721;42.206;25.320;2023-04-25T15:13:23;4.55;;;1.10;;
73487;SDS011;61721;42.206;25.320;2023-04-25T15:15:58;2.90;;;0.80;;
73487;SDS011;61721;42.206;25.320;2023-04-25T15:18:41;4.32;;;1.30;;
73487;SDS011;61721;42.206;25.320;2023-04-25T15:21:18;4.88;;;2.50;;
73487;SDS011;61721;42.206;25.320;2023-04-25T15:23:54;6.30;;;2.22;;
73487;SDS011;61721;42.206;25.320;2023-04-25T15:26:29;4.68;;;1.92;;
73487;SDS011;61721;42.206;25.320;2023-04-25T15:29:04;4.75;;;2.17;;
73487;SDS011;61721;42.206;25.320;2023-04-25T15:31:39;3.60;;;1.80;;
73487;SDS011;61721;42.206;25.320;2023-04-25T15:34:14;7.32;;;2.85;;
73487;SDS011;61721;42.206;25.320;2023-04-25T15:36:51;6.25;;;2.00;;
73487;SDS011;61721;42.206;25.320;2023-04-25T15:39:26;6.43;;;1.90;;
73487;SDS011;61721;42.206;25.320;2023-04-25T15:42:02;4.57;;;1.50;;
73487;SDS011;61721;42.206;25.320;2023-04-25T15:44:38;6.47;;;2.10;;
73487;SDS011;61721;42.206;25.320;2023-04-25T15:47:13;3.72;;;1.52;;
73487;SDS011;61721;42.206;25.320;2023-04-25T15:49:49;6.82;;;2.25;;
73487;SDS011;61721;42.206;25.320;2023-04-25T15:52:27;3.17;;;1.48;;
73487;SDS011;61721;42.206;25.320;2023-04-25T15:55:03;4.57;;;1.80;;
73487;SDS011;61721;42.206;25.320;2023-04-25T15:57:40;4.13;;;1.92;;
73487;SDS011;61721;42.206;25.320;2023-04-25T16:00:15;5.25;;;2.78;;
73487;SDS011;61721;42.206;25.320;2023-04-25T16:02:52;5.70;;;2.22;;
73487;SDS011;61721;42.206;25.320;2023-04-25T16:05:28;8.10;;;3.22;;
73487;SDS011;61721;42.206;25.320;2023-04-25T16:08:06;9.50;;;4.53;;
73487;SDS011;61721;42.206;25.320;2023-04-25T16:10:42;6.85;;;3.40;;
73487;SDS011;61721;42.206;25.320;2023-04-25T16:13:18;4.70;;;2.28;;